createdAt,value
2016-04-22T00:00:04.785Z,9.85
2016-04-22T00:01:04.804Z,9.81
2016-04-22T00:02:04.791Z,9.76
2016-04-22T00:03:04.794Z,9.81
2016-04-22T00:04:04.790Z,9.76
2016-04-22T00:05:04.792Z,9.77
2016-04-22T00:06:04.795Z,9.77
2016-04-22T00:07:04.814Z,9.69
2016-04-22T00:08:04.786Z,9.84
2016-04-22T00:09:04.788Z,9.66
2016-04-22T00:10:04.791Z,9.8
2016-04-22T00:11:04.794Z,9.72
2016-04-22T00:12:04.796Z,9.69
2016-04-22T00:13:04.799Z,9.67
2016-04-22T00:14:04.786Z,9.67
2016-04-22T00:15:04.789Z,9.67
2016-04-22T00:16:04.791Z,9.7
2016-04-22T00:17:04.778Z,9.7
2016-04-22T00:18:04.796Z,9.67
2016-04-22T00:19:04.800Z,9.63
2016-04-22T00:20:04.521Z,9.63
2016-04-22T00:21:04.789Z,9.62
2016-04-22T00:22:04.807Z,9.54
2016-04-22T00:23:04.810Z,9.63
2016-04-22T00:24:04.797Z,9.56
2016-04-22T00:25:04.800Z,9.49
2016-04-22T00:26:04.802Z,9.45
2016-04-22T00:27:04.805Z,9.44
2016-04-22T00:28:04.808Z,9.45
2016-04-22T00:29:04.795Z,9.44
2016-04-22T00:30:04.798Z,9.44
2016-04-22T00:31:04.801Z,9.36
2016-04-22T00:32:04.788Z,9.37
2016-04-22T00:33:04.806Z,9.33
2016-04-22T00:34:04.809Z,9.36
2016-04-22T00:35:04.795Z,9.45
2016-04-22T00:36:04.799Z,9.31
2016-04-22T00:37:04.786Z,9.34
2016-04-22T00:38:04.805Z,9.3
2016-04-22T00:39:04.792Z,9.3
2016-04-22T00:40:04.794Z,9.26
2016-04-22T00:41:04.797Z,9.26
2016-04-22T00:42:04.800Z,9.33
2016-04-22T00:43:04.787Z,9.24
2016-04-22T00:44:04.804Z,9.21
2016-04-22T00:45:04.793Z,9.22
2016-04-22T00:46:04.795Z,9.21
2016-04-22T00:47:04.798Z,9.16
2016-04-22T00:48:04.800Z,9.05
2016-04-22T00:49:04.803Z,9.12
2016-04-22T00:50:04.789Z,9.16
2016-04-22T00:51:04.809Z,9.12
2016-04-22T00:52:04.811Z,9.09
2016-04-22T00:53:04.798Z,9.03
2016-04-22T00:54:04.801Z,9
2016-04-22T00:55:04.820Z,8.93
2016-04-22T00:56:04.806Z,8.93
2016-04-22T00:57:04.652Z,8.93
2016-04-22T00:58:04.795Z,8.93
2016-04-22T00:59:04.814Z,8.96
2016-04-22T01:00:04.833Z,8.9
2016-04-22T01:01:04.803Z,8.87
2016-04-22T01:02:04.806Z,8.9
2016-04-22T01:03:04.824Z,8.87
2016-04-22T01:04:04.811Z,8.77
2016-04-22T01:05:04.814Z,8.78
2016-04-22T01:06:04.802Z,8.78
2016-04-22T01:07:04.804Z,8.71
2016-04-22T01:08:04.807Z,8.71
2016-04-22T01:09:04.794Z,8.68
2016-04-22T01:10:04.796Z,8.72
2016-04-22T01:11:04.815Z,8.59
2016-04-22T01:12:04.818Z,8.63
2016-04-22T01:13:04.805Z,8.6
2016-04-22T01:14:04.823Z,8.6
2016-04-22T01:15:04.795Z,8.54
2016-04-22T01:16:04.813Z,8.49
2016-04-22T01:17:04.815Z,8.54
2016-04-22T01:18:04.818Z,8.52
2016-04-22T01:19:04.821Z,8.5
2016-04-22T01:20:04.808Z,8.45
2016-04-22T01:21:04.811Z,8.44
2016-04-22T01:22:04.814Z,8.44
2016-04-22T01:23:04.801Z,8.34
2016-04-22T01:24:04.819Z,8.34
2016-04-22T01:25:04.822Z,8.38
2016-04-22T01:26:04.825Z,8.31
2016-04-22T01:27:04.827Z,8.27
2016-04-22T01:28:04.830Z,8.27
2016-04-22T01:29:04.833Z,8.32
2016-04-22T01:30:04.819Z,8.24
2016-04-22T01:31:04.822Z,8.34
2016-04-22T01:32:04.653Z,8.21
2016-04-22T01:33:04.811Z,8.21
2016-04-22T01:34:04.814Z,8.2
2016-04-22T01:35:04.833Z,8.17
2016-04-22T01:36:04.852Z,8.14
2016-04-22T01:37:04.807Z,8.11
2016-04-22T01:38:04.810Z,8.06
2016-04-22T01:39:04.828Z,8.06
2016-04-22T01:40:04.815Z,8.02
2016-04-22T01:41:04.818Z,8.09
2016-04-22T01:42:04.821Z,7.99
2016-04-22T01:43:04.808Z,8.03
2016-04-22T01:44:04.826Z,7.96
2016-04-22T01:45:04.813Z,7.96
2016-04-22T01:46:04.815Z,7.9
2016-04-22T01:47:04.818Z,7.88
2016-04-22T01:48:04.821Z,7.81
2016-04-22T01:49:04.808Z,7.85
2016-04-22T01:50:04.810Z,7.81
2016-04-22T01:51:04.813Z,7.78
2016-04-22T01:52:04.816Z,7.83
2016-04-22T01:53:04.818Z,7.83
2016-04-22T01:54:04.821Z,7.7
2016-04-22T01:55:04.824Z,7.81
2016-04-22T01:56:04.827Z,7.74
2016-04-22T01:57:04.829Z,7.7
2016-04-22T01:58:04.817Z,7.7
2016-04-22T01:59:04.819Z,7.59
2016-04-22T02:00:04.822Z,7.56
2016-04-22T02:01:04.825Z,7.56
2016-04-22T02:02:04.828Z,7.56
2016-04-22T02:03:04.830Z,7.59
2016-04-22T02:04:04.817Z,7.59
2016-04-22T02:05:04.851Z,7.53
2016-04-22T02:06:04.822Z,7.5
2016-04-22T02:07:04.825Z,7.44
2016-04-22T02:08:04.813Z,7.46
2016-04-22T02:09:04.831Z,7.46
2016-04-22T02:10:04.818Z,7.44
2016-04-22T02:11:04.821Z,7.4
2016-04-22T02:12:04.839Z,7.39
2016-04-22T02:13:04.857Z,7.46
2016-04-22T02:14:04.813Z,7.47
2016-04-22T02:15:04.816Z,7.46
2016-04-22T02:16:04.818Z,7.37
2016-04-22T02:17:04.821Z,7.32
2016-04-22T02:18:04.824Z,7.37
2016-04-22T02:19:04.810Z,7.36
2016-04-22T02:20:04.813Z,7.39
2016-04-22T02:21:04.816Z,7.39
2016-04-22T02:22:04.819Z,7.4
2016-04-22T02:23:04.821Z,7.37
2016-04-22T02:24:04.824Z,7.4
2016-04-22T02:25:04.811Z,7.33
2016-04-22T02:26:04.814Z,7.25
2016-04-22T02:27:04.832Z,7.31
2016-04-22T02:28:04.835Z,7.31
2016-04-22T02:29:04.837Z,7.25
2016-04-22T02:30:04.825Z,7.14
2016-04-22T02:31:04.828Z,7.11
2016-04-22T02:32:04.830Z,7.13
2016-04-22T02:33:04.833Z,7.07
2016-04-22T02:34:04.835Z,7.1
2016-04-22T02:35:04.822Z,7.08
2016-04-22T02:36:04.825Z,7.07
2016-04-22T02:37:04.812Z,7.05
2016-04-22T02:38:04.830Z,7
2016-04-22T02:39:04.817Z,7.01
2016-04-22T02:40:04.820Z,6.86
2016-04-22T02:41:04.822Z,6.9
2016-04-22T02:42:04.825Z,6.89
2016-04-22T02:43:04.672Z,6.86
2016-04-22T02:44:04.831Z,6.86
2016-04-22T02:45:04.833Z,6.83
2016-04-22T02:46:04.821Z,6.86
2016-04-22T02:47:04.838Z,6.87
2016-04-22T02:48:04.826Z,6.87
2016-04-22T02:49:04.829Z,6.82
2016-04-22T02:50:04.815Z,6.83
2016-04-22T02:51:04.834Z,6.77
2016-04-22T02:52:04.821Z,6.82
2016-04-22T02:53:04.824Z,6.74
2016-04-22T02:54:04.842Z,6.82
2016-04-22T02:55:04.829Z,6.8
2016-04-22T02:56:04.831Z,6.78
2016-04-22T02:57:04.820Z,6.77
2016-04-22T02:58:04.838Z,6.8
2016-04-22T02:59:04.824Z,6.7
2016-04-22T03:00:04.843Z,6.74
2016-04-22T03:01:04.830Z,6.67
2016-04-22T03:02:04.817Z,6.6
2016-04-22T03:03:04.820Z,6.65
2016-04-22T03:04:04.822Z,6.62
2016-04-22T03:05:04.825Z,6.67
2016-04-22T03:06:04.827Z,6.62
2016-04-22T03:07:04.830Z,6.65
2016-04-22T03:08:04.849Z,6.67
2016-04-22T03:09:04.819Z,6.6
2016-04-22T03:10:04.822Z,6.6
2016-04-22T03:11:04.825Z,6.6
2016-04-22T03:12:04.813Z,6.75
2016-04-22T03:13:04.675Z,6.77
2016-04-22T03:14:04.818Z,6.82
2016-04-22T03:15:04.836Z,6.82
2016-04-22T03:16:04.808Z,6.74
2016-04-22T03:17:04.826Z,6.75
2016-04-22T03:18:04.829Z,6.78
2016-04-22T03:19:04.832Z,6.72
2016-04-22T03:20:04.818Z,6.78
2016-04-22T03:21:04.837Z,6.78
2016-04-22T03:22:04.824Z,6.77
2016-04-22T03:23:04.826Z,6.74
2016-04-22T03:24:04.829Z,6.78
2016-04-22T03:25:04.832Z,6.77
2016-04-22T03:26:04.819Z,6.86
2016-04-22T03:27:04.822Z,6.89
2016-04-22T03:28:04.856Z,6.9
2016-04-22T03:29:04.827Z,7
2016-04-22T03:30:04.829Z,6.97
2016-04-22T03:31:04.817Z,6.95
2016-04-22T03:32:04.820Z,6.89
2016-04-22T03:33:04.837Z,6.89
2016-04-22T03:34:04.825Z,6.89
2016-04-22T03:35:04.811Z,6.89
2016-04-22T03:36:04.814Z,6.96
2016-04-22T03:37:04.817Z,6.97
2016-04-22T03:38:04.819Z,6.95
2016-04-22T03:39:04.823Z,6.89
2016-04-22T03:40:04.825Z,6.92
2016-04-22T03:41:04.828Z,6.87
2016-04-22T03:42:04.847Z,6.86
2016-04-22T03:43:04.818Z,6.8
2016-04-22T03:44:04.821Z,6.87
2016-04-22T03:45:04.824Z,6.85
2016-04-22T03:46:04.841Z,6.78
2016-04-22T03:47:04.844Z,6.82
2016-04-22T03:48:04.832Z,6.77
2016-04-22T03:49:04.818Z,6.82
2016-04-22T03:50:04.821Z,6.85
2016-04-22T03:51:04.823Z,6.75
2016-04-22T03:52:04.810Z,6.71
2016-04-22T03:53:04.829Z,6.68
2016-04-22T03:54:04.848Z,6.74
2016-04-22T03:55:04.819Z,6.71
2016-04-22T03:56:04.822Z,6.7
2016-04-22T03:57:04.824Z,6.62
2016-04-22T03:58:04.827Z,6.62
2016-04-22T03:59:04.829Z,6.67
2016-04-22T04:00:04.817Z,6.64
2016-04-22T04:01:04.835Z,6.64
2016-04-22T04:02:04.822Z,6.64
2016-04-22T04:03:04.825Z,6.68
2016-04-22T04:04:04.811Z,6.71
2016-04-22T04:05:04.814Z,6.65
2016-04-22T04:06:04.833Z,6.65
2016-04-22T04:07:04.835Z,6.62
2016-04-22T04:08:04.823Z,6.64
2016-04-22T04:09:04.825Z,6.67
2016-04-22T04:10:04.828Z,6.7
2016-04-22T04:11:04.831Z,6.72
2016-04-22T04:12:04.817Z,6.71
2016-04-22T04:13:04.836Z,6.82
2016-04-22T04:14:04.822Z,6.8
2016-04-22T04:15:04.810Z,6.75
2016-04-22T04:16:04.813Z,6.78
2016-04-22T04:17:04.815Z,6.83
2016-04-22T04:18:04.818Z,6.83
2016-04-22T04:19:04.821Z,6.93
2016-04-22T04:20:04.823Z,6.96
2016-04-22T04:21:04.826Z,6.92
2016-04-22T04:22:04.829Z,6.9
2016-04-22T04:23:04.846Z,6.96
2016-04-22T04:24:04.887Z,7
2016-04-22T04:25:04.914Z,6.95
2016-04-22T04:26:04.955Z,7.08
2016-04-22T04:27:04.997Z,7.04
2016-04-22T04:28:05.044Z,7.15
2016-04-22T04:29:05.030Z,7.04
2016-04-22T04:30:05.079Z,7.1
2016-04-22T04:31:05.079Z,7.18
2016-04-22T04:32:05.065Z,7.18
2016-04-22T04:33:05.094Z,7.15
2016-04-22T04:34:05.102Z,7.14
2016-04-22T04:35:05.110Z,7.36
2016-04-22T04:36:05.101Z,7.33
2016-04-22T04:37:05.126Z,7.4
2016-04-22T04:38:05.115Z,7.41
2016-04-22T04:39:05.120Z,7.44
2016-04-22T04:40:05.125Z,7.46
2016-04-22T04:41:05.129Z,7.43
2016-04-22T04:42:05.118Z,7.58
2016-04-22T04:43:05.122Z,7.67
2016-04-22T04:44:05.110Z,7.75
2016-04-22T04:45:05.113Z,7.84
2016-04-22T04:46:05.131Z,8.01
2016-04-22T04:47:05.119Z,8.11
2016-04-22T04:48:05.122Z,8.18
2016-04-22T04:49:05.126Z,8.32
2016-04-22T04:50:05.113Z,8.54
2016-04-22T04:51:05.132Z,8.68
2016-04-22T04:52:05.119Z,8.96
2016-04-22T04:53:05.122Z,9.05
2016-04-22T04:54:05.125Z,9.16
2016-04-22T04:55:05.127Z,9.39
2016-04-22T04:56:05.130Z,9.55
2016-04-22T04:57:05.116Z,9.73
2016-04-22T04:58:05.119Z,9.9
2016-04-22T04:59:05.122Z,10.07
2016-04-22T05:00:05.124Z,10.27
2016-04-22T05:01:05.127Z,10.55
2016-04-22T05:02:05.130Z,10.68
2016-04-22T05:03:05.132Z,10.92
2016-04-22T05:04:05.120Z,11.12
2016-04-22T05:05:04.982Z,11.33
2016-04-22T05:06:05.141Z,11.44
2016-04-22T05:07:05.129Z,11.49
2016-04-22T05:08:05.131Z,11.51
2016-04-22T05:09:05.134Z,11.62
2016-04-22T05:10:05.137Z,11.68
2016-04-22T05:11:05.124Z,11.8
2016-04-22T05:12:05.127Z,11.76
2016-04-22T05:13:05.145Z,11.86
2016-04-22T05:14:05.132Z,11.88
2016-04-22T05:15:05.135Z,11.81
2016-04-22T05:16:05.138Z,11.76
2016-04-22T05:17:05.125Z,11.74
2016-04-22T05:18:05.128Z,11.74
2016-04-22T05:19:05.131Z,11.76
2016-04-22T05:20:05.134Z,11.86
2016-04-22T05:21:05.136Z,12
2016-04-22T05:22:05.139Z,12.11
2016-04-22T05:23:05.126Z,12.17
2016-04-22T05:24:05.128Z,12.33
2016-04-22T05:25:05.147Z,12.44
2016-04-22T05:26:05.149Z,12.8
2016-04-22T05:27:05.136Z,13.16
2016-04-22T05:28:05.155Z,13.52
2016-04-22T05:29:05.142Z,13.82
2016-04-22T05:30:05.144Z,14.2
2016-04-22T05:31:05.147Z,14.45
2016-04-22T05:32:05.134Z,14.62
2016-04-22T05:33:05.136Z,14.73
2016-04-22T05:34:05.139Z,14.81
2016-04-22T05:35:05.142Z,14.92
2016-04-22T05:36:05.144Z,15.04
2016-04-22T05:37:05.147Z,15.1
2016-04-22T05:38:05.150Z,15.19
2016-04-22T05:39:05.153Z,15.3
2016-04-22T05:40:05.156Z,15.44
2016-04-22T05:41:05.142Z,15.43
2016-04-22T05:42:05.146Z,15.44
2016-04-22T05:43:05.163Z,15.48
2016-04-22T05:44:05.166Z,15.5
2016-04-22T05:45:05.154Z,15.47
2016-04-22T05:46:05.156Z,15.44
2016-04-22T05:47:05.159Z,15.36
2016-04-22T05:48:05.162Z,15.33
2016-04-22T05:49:05.164Z,15.35
2016-04-22T05:50:05.214Z,15.32
2016-04-22T05:51:05.169Z,15.36
2016-04-22T05:52:05.172Z,15.47
2016-04-22T05:53:05.175Z,15.29
2016-04-22T05:54:05.177Z,15.35
2016-04-22T05:55:05.180Z,15.39
2016-04-22T05:56:05.183Z,15.32
2016-04-22T05:57:05.170Z,15.48
2016-04-22T05:58:05.188Z,15.6
2016-04-22T05:59:05.192Z,15.75
2016-04-22T06:00:05.178Z,15.96
2016-04-22T06:01:05.181Z,16.08
2016-04-22T06:02:05.183Z,16.34
2016-04-22T06:03:05.186Z,16.43
2016-04-22T06:04:05.189Z,16.58
2016-04-22T06:05:05.192Z,16.68
2016-04-22T06:06:05.178Z,16.76
2016-04-22T06:07:05.197Z,16.92
2016-04-22T06:08:05.216Z,17.13
2016-04-22T06:09:05.203Z,17.16
2016-04-22T06:10:05.188Z,17.31
2016-04-22T06:11:05.207Z,17.49
2016-04-22T06:12:05.194Z,17.59
2016-04-22T06:13:05.197Z,17.73
2016-04-22T06:14:05.199Z,17.84
2016-04-22T06:15:05.219Z,18
2016-04-22T06:16:05.220Z,18.03
2016-04-22T06:17:05.239Z,18.3
2016-04-22T06:18:05.226Z,18.52
2016-04-22T06:19:05.213Z,18.74
2016-04-22T06:20:05.215Z,18.88
2016-04-22T06:21:05.203Z,18.97
2016-04-22T06:22:05.221Z,19.24
2016-04-22T06:23:05.223Z,19.48
2016-04-22T06:24:05.226Z,19.66
2016-04-22T06:25:05.229Z,19.75
2016-04-22T06:26:05.232Z,19.94
2016-04-22T06:27:05.235Z,20.08
2016-04-22T06:28:05.237Z,20.22
2016-04-22T06:29:05.240Z,20.44
2016-04-22T06:30:05.242Z,20.63
2016-04-22T06:31:05.246Z,20.8
2016-04-22T06:32:05.233Z,21.01
2016-04-22T06:33:05.251Z,21.26
2016-04-22T06:34:05.239Z,21.54
2016-04-22T06:35:05.272Z,21.54
2016-04-22T06:36:05.259Z,21.7
2016-04-22T06:37:05.247Z,21.97
2016-04-22T06:38:05.264Z,22.07
2016-04-22T06:39:05.267Z,22.21
2016-04-22T06:40:05.269Z,22.43
2016-04-22T06:41:05.272Z,22.73
2016-04-22T06:42:05.260Z,22.88
2016-04-22T06:43:05.277Z,23.18
2016-04-22T06:44:04.562Z,23.32
2016-04-22T06:45:05.268Z,23.44
2016-04-22T06:46:05.286Z,23.59
2016-04-22T06:47:05.273Z,23.81
2016-04-22T06:48:05.276Z,23.96
2016-04-22T06:49:05.279Z,24.1
2016-04-22T06:50:05.297Z,24.28
2016-04-22T06:51:05.299Z,24.44
2016-04-22T06:52:05.287Z,24.56
2016-04-22T06:53:05.304Z,24.63
2016-04-22T06:54:05.308Z,24.65
2016-04-22T06:55:05.309Z,24.69
2016-04-22T06:56:05.312Z,24.79
2016-04-22T06:57:05.315Z,25.14
2016-04-22T06:58:06.037Z,25.22
2016-04-22T06:59:05.321Z,25.39
2016-04-22T07:00:05.324Z,25.56
2016-04-22T07:01:05.326Z,25.62
2016-04-22T07:02:05.328Z,25.68
2016-04-22T07:03:05.331Z,25.68
2016-04-22T07:04:05.350Z,25.78
2016-04-22T07:05:05.353Z,25.8
2016-04-22T07:06:05.339Z,25.96
2016-04-22T07:07:05.342Z,25.92
2016-04-22T07:08:05.361Z,25.85
2016-04-22T07:09:05.347Z,25.8
2016-04-22T07:10:05.366Z,25.73
2016-04-22T07:11:05.416Z,25.83
2016-04-22T07:12:05.372Z,25.91
2016-04-22T07:13:05.375Z,26.06
2016-04-22T07:14:05.236Z,26.18
2016-04-22T07:15:05.380Z,26.19
2016-04-22T07:16:05.429Z,26.42
2016-04-22T07:17:05.385Z,26.7
2016-04-22T07:18:05.388Z,26.88
2016-04-22T07:19:05.390Z,27.11
2016-04-22T07:20:05.393Z,27.45
2016-04-22T07:21:05.396Z,27.91
2016-04-22T07:22:05.398Z,28.35
2016-04-22T07:23:05.401Z,28.57
2016-04-22T07:24:05.435Z,28.96
2016-04-22T07:25:05.422Z,29.32
2016-04-22T07:26:05.440Z,29.74
2016-04-22T07:27:04.693Z,30.08
2016-04-22T07:28:05.430Z,30.44
2016-04-22T07:29:05.448Z,30.88
2016-04-22T07:30:05.436Z,31.14
2016-04-22T07:31:05.454Z,31.33
2016-04-22T07:32:05.457Z,31.35
2016-04-22T07:33:05.459Z,31.55
2016-04-22T07:34:05.461Z,31.55
2016-04-22T07:35:05.465Z,31.63
2016-04-22T07:36:05.467Z,31.69
2016-04-22T07:37:05.470Z,31.6
2016-04-22T07:38:05.489Z,31.63
2016-04-22T07:39:05.491Z,31.69
2016-04-22T07:40:06.978Z,31.89
2016-04-22T07:41:05.528Z,32.04
2016-04-22T07:42:05.499Z,32.29
2016-04-22T07:43:05.518Z,32.44
2016-04-22T07:44:05.521Z,32.61
2016-04-22T07:45:05.538Z,32.88
2016-04-22T07:46:05.526Z,33.03
2016-04-22T07:47:05.529Z,33.31
2016-04-22T07:48:05.531Z,33.67
2016-04-22T07:49:05.534Z,34.11
2016-04-22T07:50:05.583Z,34.26
2016-04-22T07:51:05.570Z,34.79
2016-04-22T07:52:05.557Z,35.13
2016-04-22T07:53:05.560Z,35.54
2016-04-22T07:54:05.562Z,35.88
2016-04-22T07:55:05.565Z,36.24
2016-04-22T07:56:05.584Z,36.55
2016-04-22T07:57:05.587Z,36.82
2016-04-22T07:58:05.605Z,37.22
2016-04-22T07:59:05.608Z,37.6
2016-04-22T08:00:05.610Z,37.97
2016-04-22T08:01:05.613Z,38.02
2016-04-22T08:02:05.615Z,38.29
2016-04-22T08:03:05.617Z,38.28
2016-04-22T08:04:05.637Z,38.34
2016-04-22T08:05:05.640Z,38.42
2016-04-22T08:06:05.641Z,38.65
2016-04-22T08:07:05.645Z,38.98
2016-04-22T08:08:05.663Z,39.26
2016-04-22T08:09:05.666Z,39.59
2016-04-22T08:10:05.684Z,39.73
2016-04-22T08:11:05.671Z,39.97
2016-04-22T08:12:05.689Z,40.05
2016-04-22T08:13:05.692Z,40.23
2016-04-22T08:14:05.694Z,40.57
2016-04-22T08:15:05.697Z,40.81
2016-04-22T08:16:05.716Z,40.89
2016-04-22T08:17:05.718Z,40.99
2016-04-22T08:18:05.721Z,41.33
2016-04-22T08:19:05.724Z,41.64
2016-04-22T08:20:05.743Z,41.9
2016-04-22T08:21:05.745Z,41.99
2016-04-22T08:22:05.763Z,42.05
2016-04-22T08:23:05.766Z,41.88
2016-04-22T08:24:05.799Z,41.29
2016-04-22T08:25:05.615Z,40.49
2016-04-22T08:26:05.790Z,39.64
2016-04-22T08:27:05.776Z,38.79
2016-04-22T08:28:05.795Z,37.95
2016-04-22T08:29:05.798Z,37.16
2016-04-22T08:30:05.800Z,36.69
2016-04-22T08:31:05.818Z,36.41
2016-04-22T08:32:05.821Z,36.17
2016-04-22T08:33:05.823Z,36.16
2016-04-22T08:34:05.842Z,36.24
2016-04-22T08:35:05.845Z,36.28
2016-04-22T08:36:05.847Z,36.18
2016-04-22T08:37:05.851Z,35.9
2016-04-22T08:38:05.853Z,35.49
2016-04-22T08:39:06.183Z,35.19
2016-04-22T08:40:05.874Z,34.82
2016-04-22T08:41:05.877Z,34.44
2016-04-22T08:42:05.880Z,34.21
2016-04-22T08:43:05.898Z,33.81
2016-04-22T08:44:05.900Z,33.47
2016-04-22T08:45:05.903Z,33.26
2016-04-22T08:46:05.906Z,32.94
2016-04-22T08:47:05.908Z,32.6
2016-04-22T08:48:05.911Z,32.45
2016-04-22T08:49:05.930Z,32.23
2016-04-22T08:50:05.916Z,32.07
2016-04-22T08:51:05.919Z,31.89
2016-04-22T08:52:05.953Z,31.79
2016-04-22T08:53:05.941Z,31.73
2016-04-22T08:54:05.943Z,31.51
2016-04-22T08:55:05.946Z,31.44
2016-04-22T08:56:05.965Z,31.22
2016-04-22T08:57:05.982Z,31.11
2016-04-22T08:58:05.969Z,30.95
2016-04-22T08:59:05.987Z,30.92
2016-04-22T09:00:05.991Z,30.88
2016-04-22T09:01:05.993Z,30.98
2016-04-22T09:02:05.981Z,31.17
2016-04-22T09:03:06.029Z,31.39
2016-04-22T09:04:06.001Z,31.59
2016-04-22T09:05:06.004Z,32.05
2016-04-22T09:06:06.006Z,32.79
2016-04-22T09:07:06.025Z,33.4
2016-04-22T09:08:06.028Z,34.24
2016-04-22T09:09:06.031Z,34.86
2016-04-22T09:10:06.033Z,35.52
2016-04-22T09:11:06.036Z,36.2
2016-04-22T09:12:06.053Z,36.7
2016-04-22T09:13:06.041Z,37.44
2016-04-22T09:14:06.058Z,38.2
2016-04-22T09:15:06.061Z,38.98
2016-04-22T09:16:06.065Z,39.95
2016-04-22T09:17:06.083Z,40.89
2016-04-22T09:18:06.070Z,41.53
2016-04-22T09:19:06.072Z,42.06
2016-04-22T09:20:06.075Z,42.47
2016-04-22T09:21:06.078Z,42.86
2016-04-22T09:22:06.127Z,43.07
2016-04-22T09:23:06.115Z,43.25
2016-04-22T09:24:06.109Z,43.49
2016-04-22T09:25:06.127Z,43.66
2016-04-22T09:26:06.114Z,43.68
2016-04-22T09:27:06.117Z,43.5
2016-04-22T09:28:06.119Z,43.18
2016-04-22T09:29:06.123Z,42.9
2016-04-22T09:30:06.156Z,42.07
2016-04-22T09:31:06.143Z,41.15
2016-04-22T09:32:06.147Z,40.52
2016-04-22T09:33:06.149Z,39.75
2016-04-22T09:34:06.151Z,38.88
2016-04-22T09:35:06.155Z,38.12
2016-04-22T09:36:06.173Z,37.11
2016-04-22T09:37:06.160Z,36.26
2016-04-22T09:38:06.023Z,35.41
2016-04-22T09:39:06.181Z,34.85
2016-04-22T09:40:06.184Z,34.22
2016-04-22T09:41:06.202Z,33.6
2016-04-22T09:42:06.205Z,33.15
2016-04-22T09:43:06.208Z,32.63
2016-04-22T09:44:06.210Z,32.15
2016-04-22T09:45:06.213Z,31.78
2016-04-22T09:46:06.216Z,31.37
2016-04-22T09:47:06.219Z,30.93
2016-04-22T09:48:06.222Z,30.81
2016-04-22T09:49:06.224Z,30.63
2016-04-22T09:50:06.211Z,30.51
2016-04-22T09:51:06.229Z,30.2
2016-04-22T09:52:06.232Z,29.87
2016-04-22T09:53:06.249Z,29.64
2016-04-22T09:54:06.252Z,29.58
2016-04-22T09:55:06.255Z,29.49
2016-04-22T09:56:06.258Z,29.52
2016-04-22T09:57:06.261Z,29.49
2016-04-22T09:58:06.263Z,29.5
2016-04-22T09:59:06.282Z,29.59
2016-04-22T10:00:06.284Z,29.62
2016-04-22T10:01:06.287Z,29.73
2016-04-22T10:02:06.290Z,29.69
2016-04-22T10:03:06.292Z,29.74
2016-04-22T10:04:06.296Z,29.69
2016-04-22T10:05:06.297Z,29.62
2016-04-22T10:06:06.301Z,29.49
2016-04-22T10:07:06.319Z,29.37
2016-04-22T10:13:38.852Z,28.34
2016-04-22T10:14:38.855Z,28.16
2016-04-22T10:15:38.858Z,28.22
2016-04-22T10:16:38.861Z,28.1
2016-04-22T10:17:38.863Z,28.01
2016-04-22T10:18:38.882Z,28
2016-04-22T10:19:38.885Z,27.88
2016-04-22T10:20:38.888Z,27.93
2016-04-22T10:21:38.890Z,27.9
2016-04-22T10:22:38.752Z,27.85
2016-04-22T10:23:38.895Z,27.81
2016-04-22T10:24:38.898Z,27.66
2016-04-22T10:25:38.901Z,27.44
2016-04-22T10:26:38.919Z,27.3
2016-04-22T10:27:38.906Z,27.13
2016-04-22T10:28:38.909Z,26.98
2016-04-22T10:29:38.928Z,26.97
2016-04-22T10:30:38.930Z,26.73
2016-04-22T10:31:38.933Z,26.6
2016-04-22T10:32:38.936Z,26.39
2016-04-22T10:33:38.954Z,26.34
2016-04-22T10:34:38.973Z,26.23
2016-04-22T10:35:38.959Z,26.16
2016-04-22T10:36:38.977Z,26.23
2016-04-22T10:37:38.949Z,26.16
2016-04-22T10:38:38.983Z,26.23
2016-04-22T10:39:38.970Z,26.23
2016-04-22T10:40:38.972Z,26.22
2016-04-22T10:41:38.960Z,26.27
2016-04-22T10:42:38.978Z,26.29
2016-04-22T10:43:38.981Z,26.13
2016-04-22T10:44:38.983Z,26.06
2016-04-22T10:45:38.986Z,25.99
2016-04-22T10:46:39.004Z,25.96
2016-04-22T10:47:38.991Z,25.89
2016-04-22T10:48:39.010Z,25.95
2016-04-22T10:49:39.012Z,25.95
2016-04-22T10:50:39.015Z,25.86
2016-04-22T10:51:39.001Z,25.86
2016-04-22T10:52:39.020Z,25.78
2016-04-22T10:53:39.023Z,25.71
2016-04-22T10:54:39.041Z,25.54
2016-04-22T10:55:39.028Z,25.44
2016-04-22T10:56:39.031Z,25.36
2016-04-22T10:57:39.034Z,25.44
2016-04-22T10:58:39.051Z,25.58
2016-04-22T10:59:39.054Z,25.67
2016-04-22T11:00:39.057Z,25.54
2016-04-22T11:01:39.060Z,25.44
2016-04-22T11:02:39.062Z,25.36
2016-04-22T11:03:39.081Z,25.34
2016-04-22T11:04:39.067Z,25.34
2016-04-22T11:05:39.071Z,25.33
2016-04-22T11:06:39.074Z,25.36
2016-04-22T11:07:39.076Z,25.43
2016-04-22T11:08:39.078Z,25.48
2016-04-22T11:09:39.081Z,25.48
2016-04-22T11:10:39.100Z,25.52
2016-04-22T11:11:39.102Z,25.58
2016-04-22T11:12:39.105Z,25.49
2016-04-22T11:13:39.108Z,25.36
2016-04-22T11:14:39.111Z,25.4
2016-04-22T11:15:39.113Z,25.36
2016-04-22T11:16:39.132Z,25.44
2016-04-22T11:17:39.118Z,25.51
2016-04-22T11:18:39.121Z,25.54
2016-04-22T11:19:39.140Z,25.61
2016-04-22T11:20:39.143Z,25.66
2016-04-22T11:21:39.341Z,25.74
2016-04-22T11:22:39.545Z,25.77
2016-04-22T11:23:39.157Z,25.7
2016-04-22T11:24:39.145Z,25.71
2016-04-22T11:25:39.147Z,25.71
2016-04-22T11:26:39.150Z,25.7
2016-04-22T11:27:39.153Z,25.77
2016-04-22T11:28:39.171Z,25.68
2016-04-22T11:29:39.173Z,25.74
2016-04-22T11:30:39.176Z,25.83
2016-04-22T11:31:39.179Z,25.74
2016-04-22T11:32:39.182Z,25.67
2016-04-22T11:33:39.216Z,25.56
2016-04-22T11:34:39.171Z,25.61
2016-04-22T11:35:39.206Z,25.62
2016-04-22T11:36:39.177Z,25.62
2016-04-22T11:37:39.194Z,25.61
2016-04-22T11:38:39.197Z,25.59
2016-04-22T11:39:39.200Z,25.59
2016-04-22T11:40:39.219Z,25.63
2016-04-22T11:41:39.221Z,25.58
2016-04-22T11:42:39.208Z,25.56
2016-04-22T11:43:39.227Z,25.51
2016-04-22T11:44:39.214Z,25.48
2016-04-22T11:45:39.216Z,25.49
2016-04-22T11:46:39.218Z,25.4
2016-04-22T11:47:39.221Z,25.36
2016-04-22T11:48:39.224Z,25.39
2016-04-22T11:49:39.243Z,25.34
2016-04-22T11:50:39.276Z,25.44
2016-04-22T11:51:39.248Z,25.37
2016-04-22T11:52:39.251Z,25.26
2016-04-22T11:53:39.285Z,25.22
2016-04-22T11:54:39.256Z,25.26
2016-04-22T11:55:39.275Z,25.24
2016-04-22T11:56:39.292Z,25.25
2016-04-22T11:57:39.296Z,25.24
2016-04-22T11:58:39.298Z,25.39
2016-04-22T11:59:39.286Z,25.43
2016-04-22T12:00:39.289Z,25.49
2016-04-22T12:01:39.291Z,25.59
2016-04-22T12:02:39.294Z,25.71
2016-04-22T12:03:39.297Z,25.71
2016-04-22T12:04:39.314Z,25.59
2016-04-22T12:05:39.302Z,25.63
2016-04-22T12:06:39.320Z,25.56
2016-04-22T12:07:39.307Z,25.44
2016-04-22T12:08:39.310Z,25.39
2016-04-22T12:09:39.313Z,25.4
2016-04-22T12:10:39.330Z,25.41
2016-04-22T12:11:39.318Z,25.49
2016-04-22T12:12:39.320Z,25.52
2016-04-22T12:13:39.338Z,25.52
2016-04-22T12:14:39.341Z,25.51
2016-04-22T12:15:39.344Z,25.44
2016-04-22T12:16:39.394Z,25.48
2016-04-22T12:17:39.366Z,25.46
2016-04-22T12:18:39.352Z,25.44
2016-04-22T12:19:40.263Z,25.44
2016-04-22T12:20:39.359Z,25.41
2016-04-22T12:21:39.409Z,25.43
2016-04-22T12:22:39.350Z,25.51
2016-04-22T12:23:39.367Z,25.46
2016-04-22T12:24:39.370Z,25.52
2016-04-22T12:25:39.372Z,25.49
2016-04-22T12:26:39.375Z,25.46
2016-04-22T12:27:39.378Z,25.52
2016-04-22T12:28:39.381Z,25.61
2016-04-22T12:29:39.416Z,25.59
2016-04-22T12:30:39.386Z,25.67
2016-04-22T12:31:39.389Z,25.77
2016-04-22T12:32:39.407Z,25.73
2016-04-22T12:33:39.410Z,25.93
2016-04-22T12:34:39.397Z,25.95
2016-04-22T12:35:39.416Z,25.98
2016-04-22T12:36:39.419Z,25.91
2016-04-22T12:37:39.421Z,25.91
2016-04-22T12:38:39.424Z,25.89
2016-04-22T12:39:39.427Z,25.83
2016-04-22T12:40:39.429Z,25.85
2016-04-22T12:41:39.432Z,25.76
2016-04-22T12:42:39.434Z,25.86
2016-04-22T12:43:39.453Z,25.76
2016-04-22T12:44:39.440Z,25.81
2016-04-22T12:45:39.458Z,25.78
2016-04-22T12:46:39.445Z,25.63
2016-04-22T12:47:39.463Z,25.63
2016-04-22T12:48:39.466Z,25.61
2016-04-22T12:49:39.453Z,25.71
2016-04-22T12:50:39.456Z,25.78
2016-04-22T12:51:39.474Z,25.74
2016-04-22T12:52:39.478Z,25.81
2016-04-22T12:53:39.464Z,25.86
2016-04-22T12:54:39.497Z,26.04
2016-04-22T12:55:39.485Z,25.92
2016-04-22T12:56:39.534Z,25.95
2016-04-22T12:57:39.506Z,26.11
2016-04-22T12:58:39.494Z,26.1
2016-04-22T12:59:39.481Z,26.15
2016-04-22T13:00:39.499Z,26.19
2016-04-22T13:01:39.516Z,26.27
2016-04-22T13:02:39.504Z,26.36
2016-04-22T13:03:39.507Z,26.36
2016-04-22T13:04:39.510Z,26.44
2016-04-22T13:05:39.532Z,26.42
2016-04-22T13:06:39.519Z,26.34
2016-04-22T13:07:39.538Z,26.41
2016-04-22T13:08:39.540Z,26.41
2016-04-22T13:09:39.543Z,26.59
2016-04-22T13:10:39.546Z,26.73